Time;durP1;ratioP1;P1;durP2;ratioP2;P2;SDS_P1;SDS_P2;PMS_P1;PMS_P2;Temp;Humidity;BMP_temperature;BMP_pressure;BME280_temperature;BME280_humidity;BME280_pressure;Samples;Min_cycle;Max_cycle;Signal;HPM_P1;HPM_P2
2021/12/01 00:00:17;;;;;;;;;;;1.20;80.80;;;;;;5101680;28;19944;-71
2021/12/01 00:02:42;;;;;;;;;;;1.20;80.90;;;;;;5083177;28;19955;-71
2021/12/01 00:05:09;;;;;;;;;;;1.10;81.30;;;;;;5094733;28;19961;-71
2021/12/01 00:07:36;;;;;;;;;;;1.00;81.90;;;;;;5075383;28;19943;-71
2021/12/01 00:10:10;;;;;;;;;;;1.10;82.10;;;;;;5081681;28;19964;-71
2021/12/01 00:12:36;;;;;;;;;;;1.00;82.30;;;;;;5081371;28;19944;-71
2021/12/01 00:15:02;;;;;;;;;;;1.00;83.60;;;;;;5081162;28;19948;-71
2021/12/01 00:17:28;;;;;;;;;;;0.90;84.80;;;;;;5062664;28;19954;-71
2021/12/01 00:19:54;;;;;;;;;;;1.00;84.80;;;;;;5080987;28;20007;-71
2021/12/01 00:22:20;;;;;;;;;;;1.00;84.50;;;;;;5064565;28;19947;-70
2021/12/01 00:24:46;;;;;;;;;;;0.90;84.50;;;;;;5090092;28;20003;-70
2021/12/01 00:27:11;;;;;;;;;;;0.90;85.10;;;;;;5100984;28;20387;-71
2021/12/01 00:29:37;;;;;;;;;;;0.90;85.20;;;;;;5086575;28;19969;-71
2021/12/01 00:32:03;;;;;;;;;;;1.00;84.90;;;;;;5081011;28;19946;-70
2021/12/01 00:34:29;;;;;;;;;;;1.10;84.10;;;;;;5081355;28;19952;-71
2021/12/01 00:36:54;;;;;;;;;;;1.20;83.50;;;;;;5084185;28;20007;-71
2021/12/01 00:39:20;;;;;;;;;;;1.20;83.00;;;;;;5095446;28;20120;-71
2021/12/01 00:41:48;;;;;;;;;;;1.30;82.50;;;;;;5101109;28;19948;-71
2021/12/01 00:44:13;;;;;;;;;;;1.40;82.10;;;;;;5101343;28;19939;-71
2021/12/01 00:46:53;;;;;;;;;;;1.30;81.20;;;;;;5083198;28;19959;-71
2021/12/01 00:49:19;;;;;;;;;;;1.20;81.00;;;;;;5100960;28;20430;-71
2021/12/01 00:51:44;;;;;;;;;;;1.10;81.10;;;;;;5105145;28;19957;-71
2021/12/01 00:54:10;;;;;;;;;;;1.10;81.20;;;;;;5105096;28;19944;-71
2021/12/01 00:56:35;;;;;;;;;;;1.10;81.10;;;;;;5105235;28;20266;-71
2021/12/01 00:59:01;;;;;;;;;;;1.10;80.80;;;;;;5105431;28;19938;-71
2021/12/01 01:01:26;;;;;;;;;;;1.00;81.40;;;;;;5086468;28;19961;-71
2021/12/01 01:03:52;;;;;;;;;;;1.10;81.70;;;;;;5105359;28;19994;-71
2021/12/01 01:06:18;;;;;;;;;;;1.00;81.40;;;;;;5104282;28;19949;-70
2021/12/01 01:08:45;;;;;;;;;;;1.00;81.50;;;;;;5099834;28;20329;-71
2021/12/01 01:16:22;;;;;;;;;;;1.00;81.60;;;;;;5104873;28;19976;-70
2021/12/01 01:16:43;;;;;;;;;;;1.10;81.30;;;;;;5105011;28;20080;-71
2021/12/01 01:19:09;;;;;;;;;;;1.20;81.40;;;;;;5086177;28;19971;-71
2021/12/01 01:21:37;;;;;;;;;;;1.20;81.50;;;;;;5104739;28;19947;-70
2021/12/01 01:24:04;;;;;;;;;;;1.20;81.90;;;;;;5070518;28;20445;-71
2021/12/01 01:26:30;;;;;;;;;;;1.10;82.40;;;;;;5101332;28;20019;-71
2021/12/01 01:28:56;;;;;;;;;;;1.00;83.30;;;;;;5104465;28;19965;-71
2021/12/01 01:31:21;;;;;;;;;;;1.00;83.40;;;;;;5086079;28;19951;-70
2021/12/01 01:33:48;;;;;;;;;;;0.80;83.40;;;;;;5104740;28;20327;-71
2021/12/01 01:36:14;;;;;;;;;;;0.50;83.60;;;;;;5105035;28;20048;-70
2021/12/01 01:38:40;;;;;;;;;;;0.30;84.90;;;;;;5113413;22;19986;-71
2021/12/01 01:41:07;;;;;;;;;;;0.30;85.50;;;;;;5084134;28;20408;-71
2021/12/01 01:43:34;;;;;;;;;;;0.30;86.00;;;;;;5080293;28;19944;-70
2021/12/01 01:46:00;;;;;;;;;;;0.20;86.10;;;;;;5075278;28;19960;-71
2021/12/01 01:48:30;;;;;;;;;;;0.20;86.40;;;;;;5082337;28;19951;-71
2021/12/01 01:50:56;;;;;;;;;;;0.20;86.60;;;;;;5084214;28;19950;-71
2021/12/01 01:53:24;;;;;;;;;;;0.20;86.90;;;;;;5064473;28;19951;-71
2021/12/01 01:55:51;;;;;;;;;;;0.20;87.00;;;;;;5064556;28;20130;-71
2021/12/01 01:58:18;;;;;;;;;;;0.30;87.30;;;;;;5063908;28;19946;-71
2021/12/01 02:00:46;;;;;;;;;;;0.40;87.20;;;;;;5072286;28;19997;-70
2021/12/01 02:03:13;;;;;;;;;;;0.50;86.80;;;;;;5064553;28;20011;-71
2021/12/01 02:05:39;;;;;;;;;;;0.60;86.60;;;;;;5083609;28;20443;-71
2021/12/01 02:08:04;;;;;;;;;;;0.60;85.90;;;;;;5078076;28;19950;-70
2021/12/01 02:10:30;;;;;;;;;;;0.40;85.20;;;;;;5083868;28;20031;-70
2021/12/01 02:12:56;;;;;;;;;;;0.30;85.20;;;;;;5083729;28;19970;-71
2021/12/01 02:15:22;;;;;;;;;;;0.40;85.40;;;;;;5083648;28;20035;-71
2021/12/01 02:17:47;;;;;;;;;;;0.40;85.60;;;;;;5083765;28;20449;-71
2021/12/01 02:20:22;;;;;;;;;;;0.50;85.40;;;;;;5083612;28;19991;-71
2021/12/01 02:22:48;;;;;;;;;;;0.50;85.30;;;;;;5065194;28;20375;-71
2021/12/01 02:25:13;;;;;;;;;;;0.60;85.10;;;;;;5064939;28;19953;-71
2021/12/01 02:27:39;;;;;;;;;;;0.60;84.90;;;;;;5083409;28;20403;-71
2021/12/01 02:30:05;;;;;;;;;;;0.70;85.00;;;;;;5083299;28;20052;-71
2021/12/01 02:32:31;;;;;;;;;;;0.70;85.00;;;;;;5083668;28;19983;-71
2021/12/01 02:34:56;;;;;;;;;;;0.60;85.10;;;;;;5082927;28;20429;-71
2021/12/01 02:37:22;;;;;;;;;;;0.60;85.10;;;;;;5083225;28;19954;-71
2021/12/01 02:39:51;;;;;;;;;;;0.60;85.10;;;;;;5083416;28;19987;-71
2021/12/01 02:42:20;;;;;;;;;;;0.50;85.10;;;;;;5083911;28;19945;-71
2021/12/01 02:44:46;;;;;;;;;;;0.50;85.00;;;;;;5083315;28;20388;-71
2021/12/01 02:47:12;;;;;;;;;;;0.40;85.30;;;;;;5083337;28;20034;-71
2021/12/01 02:49:38;;;;;;;;;;;0.40;85.40;;;;;;5064208;28;20221;-71
2021/12/01 02:52:04;;;;;;;;;;;0.30;85.30;;;;;;5064698;28;19957;-71
2021/12/01 02:54:29;;;;;;;;;;;0.30;85.00;;;;;;5083132;28;20478;-71
2021/12/01 02:56:55;;;;;;;;;;;0.30;84.90;;;;;;5064400;28;19958;-71
2021/12/01 02:59:22;;;;;;;;;;;0.20;85.50;;;;;;5082778;28;20260;-71
2021/12/01 03:01:48;;;;;;;;;;;0.20;86.10;;;;;;5082947;28;20161;-71
2021/12/01 03:04:14;;;;;;;;;;;0.20;86.10;;;;;;5083055;28;20306;-71
2021/12/01 03:06:41;;;;;;;;;;;0.30;86.50;;;;;;5078299;28;20047;-71
2021/12/01 03:09:07;;;;;;;;;;;0.30;86.50;;;;;;5078113;28;20074;-71
2021/12/01 03:11:34;;;;;;;;;;;0.20;86.20;;;;;;5082437;28;20320;-71
2021/12/01 03:13:59;;;;;;;;;;;0.20;86.30;;;;;;5063587;28;20447;-71
2021/12/01 03:16:25;;;;;;;;;;;0.20;86.80;;;;;;5082388;28;20270;-71
2021/12/01 03:18:51;;;;;;;;;;;0.10;86.90;;;;;;5082632;28;20441;-71
2021/12/01 03:21:17;;;;;;;;;;;0.10;87.20;;;;;;5082397;28;20047;-71
2021/12/01 03:23:43;;;;;;;;;;;0.20;87.50;;;;;;5063927;28;19953;-71
2021/12/01 03:26:11;;;;;;;;;;;0.20;87.80;;;;;;5081758;28;20388;-71
2021/12/01 03:28:37;;;;;;;;;;;0.20;88.10;;;;;;5082446;28;19961;-71
2021/12/01 03:31:02;;;;;;;;;;;0.30;88.40;;;;;;5082160;28;20343;-71
2021/12/01 03:33:28;;;;;;;;;;;0.20;87.80;;;;;;5082156;28;19950;-71
2021/12/01 03:35:54;;;;;;;;;;;0.20;87.80;;;;;;5082351;28;19968;-71
2021/12/01 03:38:21;;;;;;;;;;;0.30;87.70;;;;;;5082215;28;20401;-71
2021/12/01 03:40:47;;;;;;;;;;;0.20;87.10;;;;;;5081372;28;20370;-71
2021/12/01 03:43:12;;;;;;;;;;;0.10;87.10;;;;;;5081955;28;20029;-71
2021/12/01 03:45:38;;;;;;;;;;;0.10;87.40;;;;;;5081924;28;19945;-71
2021/12/01 03:48:04;;;;;;;;;;;0.10;87.90;;;;;;5063972;28;20315;-71
2021/12/01 03:50:31;;;;;;;;;;;0.10;87.70;;;;;;5081302;28;20506;-71
2021/12/01 03:52:57;;;;;;;;;;;0.10;87.90;;;;;;5081799;28;19947;-71
2021/12/01 03:55:23;;;;;;;;;;;0.20;88.00;;;;;;5081726;28;19958;-71
2021/12/01 03:57:48;;;;;;;;;;;0.10;87.80;;;;;;5082249;28;19959;-71
2021/12/01 04:00:15;;;;;;;;;;;0.10;88.00;;;;;;5063955;28;19995;-71
2021/12/01 04:02:41;;;;;;;;;;;0.20;88.20;;;;;;5082233;28;19950;-71
2021/12/01 04:05:07;;;;;;;;;;;0.20;88.30;;;;;;5082045;28;19955;-71
2021/12/01 04:07:32;;;;;;;;;;;0.20;88.40;;;;;;5076397;28;19993;-71
2021/12/01 04:09:59;;;;;;;;;;;0.10;88.00;;;;;;5081348;28;20159;-71
2021/12/01 04:12:24;;;;;;;;;;;0.20;87.80;;;;;;5081961;28;20032;-71
2021/12/01 04:14:50;;;;;;;;;;;0.20;87.50;;;;;;5081055;28;20570;-71
2021/12/01 04:17:15;;;;;;;;;;;0.10;87.50;;;;;;5081325;28;19958;-71
2021/12/01 04:19:41;;;;;;;;;;;0.00;87.70;;;;;;5063378;28;19960;-71
2021/12/01 04:22:07;;;;;;;;;;;-3276.60;88.90;;;;;;5081580;28;19998;-71
2021/12/01 04:24:32;;;;;;;;;;;-3276.70;89.00;;;;;;5080197;28;19944;-70
2021/12/01 04:26:58;;;;;;;;;;;-3276.70;89.50;;;;;;5081043;28;19971;-71
2021/12/01 04:29:24;;;;;;;;;;;0.00;89.70;;;;;;5078953;28;19957;-70
2021/12/01 04:31:50;;;;;;;;;;;0.00;89.70;;;;;;5080675;28;20048;-70
2021/12/01 04:34:16;;;;;;;;;;;0.00;89.50;;;;;;5081247;28;19954;-70
2021/12/01 04:36:43;;;;;;;;;;;0.00;89.40;;;;;;5081005;28;19945;-70
2021/12/01 04:39:11;;;;;;;;;;;0.00;89.20;;;;;;5080527;28;20480;-70
2021/12/01 04:41:39;;;;;;;;;;;0.10;89.10;;;;;;5081209;28;19955;-70
2021/12/01 04:44:10;;;;;;;;;;;0.00;88.50;;;;;;5081372;28;20246;-70
2021/12/01 04:46:41;;;;;;;;;;;-3276.60;87.90;;;;;;5072975;28;19949;-70
2021/12/01 04:49:08;;;;;;;;;;;-3276.30;89.00;;;;;;5042438;28;19976;-70
2021/12/01 04:51:34;;;;;;;;;;;-3276.30;89.80;;;;;;5042527;28;20074;-70
2021/12/01 04:53:59;;;;;;;;;;;-3276.30;89.90;;;;;;5060972;28;20070;-70
2021/12/01 04:56:25;;;;;;;;;;;-3276.40;90.20;;;;;;5043159;28;20115;-70
2021/12/01 04:58:50;;;;;;;;;;;-3276.50;90.30;;;;;;5042801;28;19955;-70
2021/12/01 05:01:17;;;;;;;;;;;-3276.50;90.00;;;;;;5060726;28;20415;-70
2021/12/01 05:03:42;;;;;;;;;;;-3276.50;90.00;;;;;;5060488;28;19997;-70
2021/12/01 05:06:08;;;;;;;;;;;-3276.50;89.60;;;;;;5060505;28;20046;-70
2021/12/01 05:08:33;;;;;;;;;;;-3276.40;89.20;;;;;;5054954;28;19951;-71
2021/12/01 05:10:59;;;;;;;;;;;-3276.40;89.30;;;;;;5060649;28;19972;-71
2021/12/01 05:13:24;;;;;;;;;;;-3276.40;89.50;;;;;;5043042;28;20354;-71
2021/12/01 05:15:51;;;;;;;;;;;-3276.40;89.50;;;;;;5060663;28;19947;-70
2021/12/01 05:18:17;;;;;;;;;;;-3276.40;89.20;;;;;;5043058;28;19945;-71
2021/12/01 05:20:43;;;;;;;;;;;-3276.40;89.40;;;;;;5060741;28;19999;-71
2021/12/01 05:23:08;;;;;;;;;;;-3276.30;89.10;;;;;;5060254;28;20505;-71
2021/12/01 05:25:34;;;;;;;;;;;-3276.20;89.30;;;;;;5059648;28;19961;-71
2021/12/01 05:27:59;;;;;;;;;;;-3276.20;89.70;;;;;;5061169;28;20010;-71
2021/12/01 05:30:25;;;;;;;;;;;-3276.30;89.90;;;;;;5060556;28;19971;-70
2021/12/01 05:32:50;;;;;;;;;;;-3276.50;90.50;;;;;;5060502;28;19951;-70
2021/12/01 05:35:16;;;;;;;;;;;-3276.60;90.40;;;;;;5060458;28;20350;-71
2021/12/01 05:37:41;;;;;;;;;;;-3276.60;89.80;;;;;;5045856;28;19942;-70
2021/12/01 05:40:07;;;;;;;;;;;-3276.50;89.70;;;;;;5063971;28;19985;-70
2021/12/01 05:42:33;;;;;;;;;;;-3276.50;89.60;;;;;;5085053;28;19952;-70
2021/12/01 05:44:58;;;;;;;;;;;-3276.50;89.60;;;;;;5084535;28;20498;-70
2021/12/01 05:47:24;;;;;;;;;;;-3276.40;89.60;;;;;;5084203;28;20440;-70
2021/12/01 05:49:49;;;;;;;;;;;-3276.40;89.90;;;;;;5084437;28;19990;-70
2021/12/01 05:52:16;;;;;;;;;;;-3276.50;89.80;;;;;;5080870;28;19950;-70
2021/12/01 05:54:43;;;;;;;;;;;-3276.60;89.60;;;;;;5073970;28;20561;-70
2021/12/01 05:57:09;;;;;;;;;;;-3276.60;89.50;;;;;;5075498;28;19979;-70
2021/12/01 05:59:35;;;;;;;;;;;-3276.70;89.40;;;;;;5062287;28;19952;-70
2021/12/01 06:02:01;;;;;;;;;;;-3276.70;89.50;;;;;;5062951;28;19949;-70
2021/12/01 06:04:27;;;;;;;;;;;-3276.70;89.40;;;;;;5061982;28;19954;-70
2021/12/01 06:06:53;;;;;;;;;;;0.00;89.10;;;;;;5059774;28;20040;-70
2021/12/01 06:09:18;;;;;;;;;;;0.00;89.00;;;;;;5060313;28;20381;-70
2021/12/01 06:11:46;;;;;;;;;;;0.00;89.10;;;;;;5063167;28;20041;-70
2021/12/01 06:14:13;;;;;;;;;;;0.00;89.00;;;;;;5042052;28;20499;-70
2021/12/01 06:16:39;;;;;;;;;;;0.00;88.40;;;;;;5063340;28;20384;-71
2021/12/01 06:19:04;;;;;;;;;;;-3276.70;88.60;;;;;;5044558;28;19954;-71
2021/12/01 06:21:30;;;;;;;;;;;-3276.70;88.70;;;;;;5063619;28;20005;-70
2021/12/01 06:23:55;;;;;;;;;;;-3276.70;89.10;;;;;;5062422;28;20808;-71
2021/12/01 06:26:21;;;;;;;;;;;0.00;89.00;;;;;;5065592;28;19969;-71
2021/12/01 06:28:47;;;;;;;;;;;-3276.70;88.80;;;;;;5069985;28;19966;-71
2021/12/01 06:31:12;;;;;;;;;;;-3276.70;88.30;;;;;;5058826;28;19949;-71
2021/12/01 06:33:38;;;;;;;;;;;-3276.60;88.20;;;;;;5056801;28;19992;-71
2021/12/01 06:36:03;;;;;;;;;;;-3276.60;87.90;;;;;;5055973;28;19969;-71
2021/12/01 06:38:29;;;;;;;;;;;-3276.50;87.70;;;;;;5063734;28;19989;-71
2021/12/01 06:40:55;;;;;;;;;;;-3276.40;87.80;;;;;;5056220;28;19951;-71
2021/12/01 06:43:20;;;;;;;;;;;-3276.40;88.20;;;;;;5061640;28;20371;-71
2021/12/01 06:45:46;;;;;;;;;;;-3276.60;88.50;;;;;;5064428;28;19958;-71
2021/12/01 06:48:11;;;;;;;;;;;-3276.60;88.30;;;;;;5058307;28;19964;-71
2021/12/01 06:50:37;;;;;;;;;;;-3276.50;88.40;;;;;;5060208;28;20443;-72
2021/12/01 06:53:04;;;;;;;;;;;-3276.70;88.90;;;;;;5066127;28;20054;-72
2021/12/01 06:55:30;;;;;;;;;;;0.00;88.80;;;;;;5062816;28;19947;-72
2021/12/01 06:57:55;;;;;;;;;;;0.00;88.80;;;;;;5055790;28;19957;-71
2021/12/01 07:00:21;;;;;;;;;;;0.00;88.30;;;;;;5057138;28;19979;-71
2021/12/01 07:02:46;;;;;;;;;;;-3276.70;87.50;;;;;;5058695;28;20234;-71
2021/12/01 07:05:12;;;;;;;;;;;-3276.40;87.70;;;;;;5060797;28;19957;-71
2021/12/01 07:07:38;;;;;;;;;;;-3276.30;88.40;;;;;;5032666;28;20073;-71
2021/12/01 07:10:09;;;;;;;;;;;-3276.40;89.10;;;;;;5037314;28;19970;-71
2021/12/01 07:12:34;;;;;;;;;;;-3276.60;89.30;;;;;;5055390;28;19955;-71
2021/12/01 07:15:00;;;;;;;;;;;-3276.70;89.30;;;;;;5060444;28;19979;-71
2021/12/01 07:17:25;;;;;;;;;;;-3276.70;89.00;;;;;;5054738;28;20328;-71
2021/12/01 07:19:51;;;;;;;;;;;0.00;89.00;;;;;;5057751;28;20481;-72
2021/12/01 07:22:17;;;;;;;;;;;0.00;88.90;;;;;;5057275;28;20323;-71
2021/12/01 07:24:43;;;;;;;;;;;0.20;88.60;;;;;;5046333;28;20411;-71
2021/12/01 07:27:08;;;;;;;;;;;0.20;88.30;;;;;;5055074;28;19960;-72
2021/12/01 07:29:37;;;;;;;;;;;0.20;88.00;;;;;;5048063;28;19968;-71
2021/12/01 07:32:03;;;;;;;;;;;0.20;87.60;;;;;;5062914;28;19949;-71
2021/12/01 07:34:29;;;;;;;;;;;0.30;87.90;;;;;;5056357;28;19977;-71
2021/12/01 07:36:54;;;;;;;;;;;0.30;88.80;;;;;;5067032;28;19979;-71
2021/12/01 07:39:20;;;;;;;;;;;0.30;89.10;;;;;;5067147;28;19990;-71
2021/12/01 07:41:46;;;;;;;;;;;0.40;89.30;;;;;;5085763;28;20278;-72
2021/12/01 07:44:12;;;;;;;;;;;0.40;89.20;;;;;;5076919;28;19976;-71
2021/12/01 07:46:38;;;;;;;;;;;0.40;89.40;;;;;;5079446;28;20307;-71
2021/12/01 07:49:04;;;;;;;;;;;0.50;89.60;;;;;;5082280;28;19965;-72
2021/12/01 07:51:29;;;;;;;;;;;0.60;89.70;;;;;;5066902;28;19966;-71
2021/12/01 07:53:55;;;;;;;;;;;0.80;89.60;;;;;;5073528;28;20513;-70
2021/12/01 07:56:21;;;;;;;;;;;0.80;88.80;;;;;;5075976;28;19969;-74
2021/12/01 07:58:46;;;;;;;;;;;0.90;87.80;;;;;;5075859;28;19951;-71
2021/12/01 08:01:12;;;;;;;;;;;1.00;87.80;;;;;;5075191;28;20484;-71
2021/12/01 08:03:37;;;;;;;;;;;1.20;88.20;;;;;;5072899;28;20762;-74
2021/12/01 08:06:03;;;;;;;;;;;1.40;87.50;;;;;;5073123;28;19961;-71
2021/12/01 08:08:29;;;;;;;;;;;1.50;86.50;;;;;;5072514;28;19952;-71
2021/12/01 08:10:55;;;;;;;;;;;1.50;86.70;;;;;;5079161;28;19972;-71
2021/12/01 08:13:21;;;;;;;;;;;1.50;86.70;;;;;;5077784;28;20269;-71
2021/12/01 08:15:47;;;;;;;;;;;1.70;86.60;;;;;;5076834;28;20000;-71
2021/12/01 08:18:13;;;;;;;;;;;1.80;86.30;;;;;;5057199;28;19956;-71
2021/12/01 08:20:39;;;;;;;;;;;1.80;86.00;;;;;;5078595;28;20337;-71
2021/12/01 08:23:05;;;;;;;;;;;1.90;84.80;;;;;;5075758;28;19953;-71
2021/12/01 08:25:30;;;;;;;;;;;2.00;83.90;;;;;;5076085;28;19961;-71
2021/12/01 08:27:56;;;;;;;;;;;2.10;84.40;;;;;;5074820;28;19951;-71
2021/12/01 08:30:21;;;;;;;;;;;2.40;83.90;;;;;;5076000;28;19969;-71
2021/12/01 08:32:47;;;;;;;;;;;2.50;82.70;;;;;;5057880;28;19949;-71
2021/12/01 08:35:14;;;;;;;;;;;2.50;82.30;;;;;;5071203;28;20400;-71
2021/12/01 08:37:39;;;;;;;;;;;2.50;82.70;;;;;;5075126;28;20044;-71
2021/12/01 08:40:05;;;;;;;;;;;2.50;83.80;;;;;;5058630;28;19978;-70
2021/12/01 08:42:31;;;;;;;;;;;2.50;84.40;;;;;;5051031;28;20053;-71
2021/12/01 08:44:56;;;;;;;;;;;2.50;84.20;;;;;;5032276;28;21368;-71
2021/12/01 08:47:24;;;;;;;;;;;2.50;84.00;;;;;;5053702;28;19947;-71
2021/12/01 08:49:50;;;;;;;;;;;2.70;84.10;;;;;;5056112;28;19981;-71
2021/12/01 08:52:16;;;;;;;;;;;2.70;83.40;;;;;;5052694;28;19946;-74
2021/12/01 08:54:42;;;;;;;;;;;2.80;82.90;;;;;;5044213;28;20305;-74
2021/12/01 08:57:07;;;;;;;;;;;3.00;83.20;;;;;;5054635;28;20291;-69
2021/12/01 08:59:33;;;;;;;;;;;3.20;82.90;;;;;;5052938;28;20339;-73
2021/12/01 09:02:00;;;;;;;;;;;3.40;82.60;;;;;;5035256;28;20043;-71
2021/12/01 09:04:26;;;;;;;;;;;3.50;82.30;;;;;;5054451;28;19945;-71
2021/12/01 09:06:51;;;;;;;;;;;3.80;81.50;;;;;;5050819;28;20008;-71
2021/12/01 09:09:20;;;;;;;;;;;3.90;81.10;;;;;;5048570;28;20051;-72
2021/12/01 09:11:46;;;;;;;;;;;4.20;80.90;;;;;;5053451;28;20348;-71
2021/12/01 09:14:12;;;;;;;;;;;4.30;79.80;;;;;;5056323;28;20141;-72
2021/12/01 09:16:38;;;;;;;;;;;4.30;80.20;;;;;;5058313;28;20518;-72
2021/12/01 09:19:03;;;;;;;;;;;4.40;79.90;;;;;;5059006;28;20037;-71
2021/12/01 09:21:29;;;;;;;;;;;4.40;79.50;;;;;;5060673;28;20062;-70
2021/12/01 09:23:54;;;;;;;;;;;4.50;80.00;;;;;;5057097;28;20354;-70
2021/12/01 09:26:20;;;;;;;;;;;4.50;80.00;;;;;;5054989;28;19971;-70
2021/12/01 09:28:46;;;;;;;;;;;4.70;79.70;;;;;;5058941;28;19981;-71
2021/12/01 09:31:11;;;;;;;;;;;4.80;79.40;;;;;;5058130;28;20418;-72
2021/12/01 09:33:37;;;;;;;;;;;4.90;77.70;;;;;;5056167;28;19954;-71
2021/12/01 09:36:03;;;;;;;;;;;5.00;78.00;;;;;;5056602;28;19963;-71
2021/12/01 09:38:29;;;;;;;;;;;5.20;77.60;;;;;;5056961;22;20004;-71
2021/12/01 09:40:57;;;;;;;;;;;5.40;76.60;;;;;;5037549;28;19961;-71
2021/12/01 09:43:25;;;;;;;;;;;5.50;76.60;;;;;;5020835;28;20409;-71
2021/12/01 09:45:52;;;;;;;;;;;5.70;76.00;;;;;;5040159;28;19955;-70
2021/12/01 09:48:18;;;;;;;;;;;5.90;74.50;;;;;;5041095;28;19954;-70
2021/12/01 09:50:43;;;;;;;;;;;6.10;73.30;;;;;;5056927;28;19965;-71
2021/12/01 09:53:09;;;;;;;;;;;6.30;71.50;;;;;;5057376;28;19988;-71
2021/12/01 09:55:36;;;;;;;;;;;6.40;71.10;;;;;;5059690;28;19949;-71
2021/12/01 09:58:11;;;;;;;;;;;6.50;70.80;;;;;;5059831;28;19946;-71
2021/12/01 10:00:38;;;;;;;;;;;6.60;70.10;;;;;;5057859;28;20039;-71
2021/12/01 10:03:04;;;;;;;;;;;6.60;69.90;;;;;;5058186;28;20208;-71
2021/12/01 10:06:02;;;;;;;;;;;6.70;68.30;;;;;;5056555;28;19944;-71
2021/12/01 10:08:44;;;;;;;;;;;6.90;65.00;;;;;;5048265;28;20310;-72
2021/12/01 10:11:09;;;;;;;;;;;7.20;63.10;;;;;;5062372;28;20345;-72
2021/12/01 10:13:37;;;;;;;;;;;7.30;63.10;;;;;;5060456;28;19948;-73
2021/12/01 10:16:05;;;;;;;;;;;7.40;62.60;;;;;;5056925;28;20483;-71
2021/12/01 10:18:34;;;;;;;;;;;7.60;61.40;;;;;;5060030;28;19953;-71
2021/12/01 10:21:04;;;;;;;;;;;7.60;63.20;;;;;;5057244;28;19953;-71
2021/12/01 10:23:30;;;;;;;;;;;7.70;62.70;;;;;;5062177;28;19959;-71
2021/12/01 10:25:56;;;;;;;;;;;7.90;62.30;;;;;;5056470;28;19980;-71
2021/12/01 10:28:40;;;;;;;;;;;8.10;60.80;;;;;;5057004;28;19948;-71
2021/12/01 10:31:05;;;;;;;;;;;8.40;60.10;;;;;;5059130;28;20447;-71
2021/12/01 10:33:31;;;;;;;;;;;8.50;59.80;;;;;;5032134;28;19952;-71
2021/12/01 10:35:58;;;;;;;;;;;8.70;59.60;;;;;;5056706;28;19954;-71
2021/12/01 10:38:28;;;;;;;;;;;8.90;59.20;;;;;;5055052;28;19976;-71
2021/12/01 10:41:04;;;;;;;;;;;9.10;58.40;;;;;;5057504;28;20050;-71
2021/12/01 10:43:42;;;;;;;;;;;9.20;56.10;;;;;;5056918;28;19954;-71
2021/12/01 10:46:17;;;;;;;;;;;9.30;54.80;;;;;;5058419;28;20084;-71
2021/12/01 10:48:45;;;;;;;;;;;9.50;54.70;;;;;;5059270;28;19962;-70
2021/12/01 10:51:13;;;;;;;;;;;9.70;55.10;;;;;;5055660;28;20384;-70
2021/12/01 10:53:39;;;;;;;;;;;9.80;54.00;;;;;;5053497;28;19996;-70
2021/12/01 10:56:06;;;;;;;;;;;9.90;53.70;;;;;;5057091;28;21167;-73
2021/12/01 10:58:35;;;;;;;;;;;10.10;54.90;;;;;;5058188;28;20135;-72
2021/12/01 11:01:03;;;;;;;;;;;10.40;53.90;;;;;;5036327;28;20427;-71
2021/12/01 11:03:33;;;;;;;;;;;10.70;52.80;;;;;;5040510;28;19962;-71
2021/12/01 11:06:07;;;;;;;;;;;10.90;52.40;;;;;;5055189;28;20002;-72
2021/12/01 11:08:35;;;;;;;;;;;11.30;51.10;;;;;;5048779;28;19955;-72
2021/12/01 11:11:05;;;;;;;;;;;11.50;51.30;;;;;;5055902;28;19972;-72
2021/12/01 11:13:32;;;;;;;;;;;11.70;50.80;;;;;;5052214;28;19947;-72
2021/12/01 11:15:58;;;;;;;;;;;11.60;50.40;;;;;;5042497;28;19961;-72
2021/12/01 11:18:28;;;;;;;;;;;11.60;50.70;;;;;;5060692;28;20412;-71
2021/12/01 11:20:58;;;;;;;;;;;11.40;50.70;;;;;;5057384;28;19942;-71
2021/12/01 11:23:30;;;;;;;;;;;11.30;51.10;;;;;;5059757;28;19951;-71
2021/12/01 11:25:56;;;;;;;;;;;11.10;51.80;;;;;;5060265;28;20005;-71
2021/12/01 11:28:23;;;;;;;;;;;11.10;52.70;;;;;;5060642;28;19976;-71
2021/12/01 11:30:51;;;;;;;;;;;11.00;54.60;;;;;;5060422;28;20489;-72
2021/12/01 11:33:18;;;;;;;;;;;11.10;54.80;;;;;;5060349;28;20274;-72
2021/12/01 11:35:51;;;;;;;;;;;11.30;53.90;;;;;;5059884;28;19943;-72
2021/12/01 11:38:16;;;;;;;;;;;11.60;53.00;;;;;;5060307;28;19948;-72
2021/12/01 11:40:42;;;;;;;;;;;11.90;52.00;;;;;;5057324;28;20429;-72
2021/12/01 11:43:10;;;;;;;;;;;12.20;51.90;;;;;;5059965;28;20001;-72
2021/12/01 11:45:37;;;;;;;;;;;12.60;50.70;;;;;;5059633;28;19976;-72
2021/12/01 11:48:03;;;;;;;;;;;13.30;49.60;;;;;;5060563;28;19942;-72
2021/12/01 11:50:33;;;;;;;;;;;13.50;47.00;;;;;;5059852;28;19966;-71
2021/12/01 11:53:06;;;;;;;;;;;13.20;47.70;;;;;;5060479;28;20032;-72
2021/12/01 11:55:52;;;;;;;;;;;13.00;49.20;;;;;;5059737;28;19949;-71
2021/12/01 11:58:36;;;;;;;;;;;12.60;50.20;;;;;;5040191;28;19986;-71
2021/12/01 12:01:01;;;;;;;;;;;12.10;51.30;;;;;;5040765;28;19947;-71
2021/12/01 12:03:27;;;;;;;;;;;11.90;52.10;;;;;;5039469;28;19956;-71
2021/12/01 12:06:11;;;;;;;;;;;11.50;52.60;;;;;;5040298;28;20296;-72
2021/12/01 12:09:06;;;;;;;;;;;11.40;53.80;;;;;;5034403;28;20026;-71
2021/12/01 12:11:35;;;;;;;;;;;11.40;53.70;;;;;;5033497;28;20467;-71
2021/12/01 12:14:02;;;;;;;;;;;11.30;53.90;;;;;;5059302;28;20025;-72
2021/12/01 12:16:28;;;;;;;;;;;11.20;53.70;;;;;;5059043;28;19951;-72
2021/12/01 12:18:53;;;;;;;;;;;11.10;54.50;;;;;;5058539;28;19950;-72
2021/12/01 12:21:24;;;;;;;;;;;10.90;54.50;;;;;;5058797;28;19954;-72
2021/12/01 12:23:50;;;;;;;;;;;10.90;53.70;;;;;;5058765;28;19956;-71
2021/12/01 12:26:49;;;;;;;;;;;10.80;54.20;;;;;;5058150;28;19956;-71
2021/12/01 12:29:18;;;;;;;;;;;10.50;56.00;;;;;;5010500;28;20447;-71
2021/12/01 12:31:45;;;;;;;;;;;10.10;58.40;;;;;;5050694;28;19951;-72
2021/12/01 12:34:18;;;;;;;;;;;10.10;57.60;;;;;;5054043;28;20485;-71
2021/12/01 12:36:48;;;;;;;;;;;10.00;57.20;;;;;;5050790;28;19940;-72
2021/12/01 12:39:24;;;;;;;;;;;9.90;58.70;;;;;;5054300;28;19975;-72
2021/12/01 12:42:05;;;;;;;;;;;9.70;58.80;;;;;;5034583;28;19981;-72
2021/12/01 12:44:31;;;;;;;;;;;9.60;59.40;;;;;;5055685;28;19943;-72
2021/12/01 12:47:07;;;;;;;;;;;9.60;59.70;;;;;;5052678;28;19948;-72
2021/12/01 12:49:39;;;;;;;;;;;9.60;60.40;;;;;;5054630;28;19967;-72
2021/12/01 12:52:23;;;;;;;;;;;9.70;60.30;;;;;;5055020;28;20469;-72
2021/12/01 12:54:48;;;;;;;;;;;9.70;59.70;;;;;;5053177;28;19954;-72
2021/12/01 12:57:16;;;;;;;;;;;9.60;59.50;;;;;;5038246;28;19958;-72
2021/12/01 12:59:41;;;;;;;;;;;9.70;60.10;;;;;;5054323;28;20446;-72
2021/12/01 13:02:07;;;;;;;;;;;9.70;60.40;;;;;;5054392;28;19960;-72
2021/12/01 13:07:29;;;;;;;;;;;9.60;60.90;;;;;;5050761;28;20061;-72
2021/12/01 13:10:06;;;;;;;;;;;9.50;61.60;;;;;;5049427;28;19968;-72
2021/12/01 13:12:59;;;;;;;;;;;9.50;61.10;;;;;;5058728;28;19950;-72
2021/12/01 13:15:24;;;;;;;;;;;9.50;61.30;;;;;;5043652;28;19949;-72
2021/12/01 13:17:51;;;;;;;;;;;9.60;61.60;;;;;;5054936;28;19966;-73
2021/12/01 13:20:18;;;;;;;;;;;9.60;60.30;;;;;;5054771;28;19944;-73
2021/12/01 13:23:04;;;;;;;;;;;9.50;59.30;;;;;;5052082;28;19963;-72
2021/12/01 13:25:30;;;;;;;;;;;9.50;59.70;;;;;;5044496;28;19965;-72
2021/12/01 13:27:55;;;;;;;;;;;9.50;59.90;;;;;;5054856;28;19948;-72
2021/12/01 13:30:21;;;;;;;;;;;9.60;60.90;;;;;;5051108;28;19968;-72
2021/12/01 13:33:07;;;;;;;;;;;9.70;60.50;;;;;;5048032;28;20381;-72
2021/12/01 13:35:32;;;;;;;;;;;9.80;60.20;;;;;;5053223;28;19949;-72
2021/12/01 13:37:58;;;;;;;;;;;9.60;60.80;;;;;;5050374;28;19951;-72
2021/12/01 13:40:27;;;;;;;;;;;9.50;61.60;;;;;;5051827;28;19978;-72
2021/12/01 13:42:52;;;;;;;;;;;9.40;62.90;;;;;;5057484;28;20005;-72
2021/12/01 13:45:18;;;;;;;;;;;9.30;62.90;;;;;;5048755;28;19959;-73
2021/12/01 13:47:44;;;;;;;;;;;9.20;62.90;;;;;;5050725;28;19944;-72
2021/12/01 13:50:10;;;;;;;;;;;9.10;62.40;;;;;;5064013;28;19967;-73
2021/12/01 13:52:46;;;;;;;;;;;9.10;63.30;;;;;;5060966;28;20993;-76
2021/12/01 13:55:22;;;;;;;;;;;9.10;63.10;;;;;;5061380;28;20413;-72
2021/12/01 13:57:53;;;;;;;;;;;9.10;63.50;;;;;;5057398;28;19954;-78
2021/12/01 14:00:34;;;;;;;;;;;9.20;63.50;;;;;;5037053;28;20311;-74
2021/12/01 14:03:00;;;;;;;;;;;9.40;62.90;;;;;;5056962;28;20241;-73
2021/12/01 14:05:26;;;;;;;;;;;9.40;62.30;;;;;;5055439;28;19954;-73
2021/12/01 14:07:53;;;;;;;;;;;9.50;61.00;;;;;;5049779;28;21299;-73
2021/12/01 14:10:18;;;;;;;;;;;9.50;60.50;;;;;;5042515;28;20017;-73
2021/12/01 14:12:57;;;;;;;;;;;9.40;60.20;;;;;;5063359;28;20037;-73
2021/12/01 14:15:33;;;;;;;;;;;9.30;60.30;;;;;;5062639;28;19963;-73
2021/12/01 14:18:00;;;;;;;;;;;9.10;60.60;;;;;;5061658;28;21030;-73
2021/12/01 14:20:26;;;;;;;;;;;9.00;61.10;;;;;;5062298;28;20411;-73
2021/12/01 14:22:56;;;;;;;;;;;8.90;61.70;;;;;;5055450;28;19966;-73
2021/12/01 14:25:22;;;;;;;;;;;8.90;62.20;;;;;;5062072;28;19955;-74
2021/12/01 14:27:51;;;;;;;;;;;9.00;62.50;;;;;;5040984;28;20370;-73